LiveATC.Net - Listen to live air traffic control over the Internet! Contact LiveATC.net for advertising information

Find LiveATC Audio Streams


Airport/ARTCC Code

Frequency
(e.g., 124.400, 128.75)
Site-wide search

Browse LiveATC Feeds
LiveATC Coverage Map
Top 50 LiveATC Feeds
Bad Weather Areas

LiveATC FAQ
Offer a LiveATC Feed
Contact LiveATC.net
Press Inquiries

LiveATC on iPhone
LiveATC on Android

LiveATC Mobile
(Mobile browser)

ATC Audio Archives
Interesting Recordings

LiveATC Forums

Home Page
About LiveATC.net
Make a Donation
LiveATC Bookstore

Terms of Use
Privacy Policy

ATC/Radar Sites
U.S. ARTCC Freqs
Canadian Air Freqs

AIRMETs/SIGMETs

FAA Airport Status
Nat'l Airspace Status
Arrival Demand Charts


Server Software By:
Icecast.org
Liquidsoap

U.S. Feeds: Class B Airports | Class C Airports | Class D/Other Airports | ARTCC (Centers)
International Feeds: Canada | Europe | Oceania | Asia | South America | North & Central America | Africa
Misc Feeds: HF Feeds
All Feeds: All Feeds
Search by ICAO/IATA airport code:   (e.g., kbos, kjfk, lax, eham, etc.)


Currently Available Live Feeds: 946
Status Updated: Sat Apr 19 2014 17:04:01 UTC


NOTICE

Unauthorized use prohibited. See LiveATC.net Terms of Service

ATC Facility
ATC Radio Frequencies

North and Central America Airport Feeds

 

MDSD Twr/App/Control
Santo Domingo, Dominican Republic

Feed Status: DOWN
Offline since: 2014-01-28 03:44:04 UTC
MDSD 191700Z 14010KT 9999 FEW025 30/24 Q1016 NOSIG

Americas Approach: 119.300
Americas Tower: 118.100
Higuero Tower: 118.900
Santo Domingo Control (North): 124.300
Santo Domingo Control (South): 127.800
Santo Domingo Information: 126.900

MMAN Tower (Archives)
Monterrey, Mexico

Feed Status: UP

Click on your favorite media player to listen:
Listen with WinAmp to MMAN Tower  Listen with iTunes to MMAN Tower  Click here to listen if using Real Player  Click here to listen if using Windows Media Player

Or simply listen in your browser:

Listen right in your browser(in browser, requires Flash)

MMAN 191642Z 12007KT 1SM BR BKN003 OVC005 18/18 A3014 RMK 8/7//

MMAN Flight Activity (Flightaware)

Listeners: 4 out of 3691 total

Monterrey Tower: 118.600

MMCL Twr/App/Center (Archives)
Culiacan, Mexico

Feed Status: UP

Click on your favorite media player to listen:
Listen with WinAmp to MMCL Twr/App/Center  Listen with iTunes to MMCL Twr/App/Center  Click here to listen if using Real Player  Click here to listen if using Windows Media Player

Or simply listen in your browser:

Listen right in your browser(in browser, requires Flash)

MMCL 191640Z 18005KT 10SM SCT015 BKN230 27/21 A2996 RMK 8/104

MMCL Flight Activity (Flightaware)

Listeners: 4 out of 3691 total

Culiacan Approach: 119.750
Culiacan Tower: 118.500
Mazatlan Center: 128.000
Mazatlan Center: 124.400
Mazatlan Center: 128.300
Mazatlan Center: 124.200

MMGL Twr/App (Archives)
Guadalajara, Mexico

Feed Status: UP

Click on your favorite media player to listen:
Listen with WinAmp to MMGL Twr/App  Listen with iTunes to MMGL Twr/App  Click here to listen if using Real Player  Click here to listen if using Windows Media Player

Or simply listen in your browser:

Listen right in your browser(in browser, requires Flash)

MMGL 191651Z 09003KT 10SM SKC 26/09 A3019 RMK CU

MMGL Flight Activity (Flightaware)

Listeners: 4 out of 3691 total

Guadalajara Approach: 120.800
Guadalajara Tower: 118.100

MMLP Twr/App/Center
La Paz, Mexico

Feed Status: DOWN
Offline since: 2014-03-30 23:08:03 UTC
MMLP 191641Z 21007KT 10SM SKC 22/10 A2999 RMK ISOL ST

La Paz Approach: 120.600
La Paz Tower: 118.100
Los Cabos Approach: 120.900
Mazatlan Center: 128.000
Mazatlan Center: 124.400
Mazatlan Center: 128.300
Mazatlan Center: 124.200
Mazatlan Center: 126.300

MMMD Tower/Approach (Archives)
Merida, Mexico

Feed Status: UP

Click on your favorite media player to listen:
Listen with WinAmp to MMMD Tower/Approach   Listen with iTunes to MMMD Tower/Approach   Click here to listen if using Real Player  Click here to listen if using Windows Media Player

Or simply listen in your browser:

Listen right in your browser(in browser, requires Flash)

MMMD 191642Z 01009KT 7SM BKN020 29/17 A3003 RMK 8/100 CI

MMMD Flight Activity (Flightaware)

Listeners: 4 out of 3691 total

Merida Approach: 121.200
Merida Tower: 118.300

MMMX Approach (Archives)
Mexico City, Mexico

Feed Status: UP

Click on your favorite media player to listen:
Listen with WinAmp to MMMX Approach  Listen with iTunes to MMMX Approach  Click here to listen if using Real Player  Click here to listen if using Windows Media Player

Or simply listen in your browser:

Listen right in your browser(in browser, requires Flash)

MMMX 191648Z 08002KT 6SM SCT200 20/10 A3036 NOSIG RMK 8/002 HZY CU FRMG 3QUAD

MMMX Flight Activity (Flightaware)

Listeners: 17 out of 3691 total

Mexico City Approach: 121.200

MMMY Tower/Approach (Archives)
Monterrey, Mexico

Feed Status: UP

Click on your favorite media player to listen:
Listen with WinAmp to MMMY Tower/Approach  Listen with iTunes to MMMY Tower/Approach  Click here to listen if using Real Player  Click here to listen if using Windows Media Player

Or simply listen in your browser:

Listen right in your browser(in browser, requires Flash)

MMMY 191646Z 08005KT 1SM -DZ BR SCT002 BKN004 OVC005 18/18 A3010 RMK 60025 8/7//

MMMY Flight Activity (Flightaware)

Listeners: 7 out of 3691 total

Monterrey Approach/Departure: 119.750
Monterrey Tower: 118.100

MMPB Tower (Archives)
Puebla, Mexico

Feed Status: UP

Click on your favorite media player to listen:
Listen with WinAmp to MMPB Tower  Listen with iTunes to MMPB Tower  Click here to listen if using Real Player  Click here to listen if using Windows Media Player

Or simply listen in your browser:

Listen right in your browser(in browser, requires Flash)

MMPB 191648Z 07004KT 8SM BKN200 20/09 A3037 RMK 8/008 HZY ISOL SC

MMPB Flight Activity (Flightaware)

Listeners: 4 out of 3691 total

Puebla Tower: 118.200

MMPB Tower/Approach (Archives)
Puebla, Mexico

Feed Status: UP

Click on your favorite media player to listen:
Listen with WinAmp to MMPB Tower/Approach  Listen with iTunes to MMPB Tower/Approach  Click here to listen if using Real Player  Click here to listen if using Windows Media Player

Or simply listen in your browser:

Listen right in your browser(in browser, requires Flash)

MMPB 191648Z 07004KT 8SM BKN200 20/09 A3037 RMK 8/008 HZY ISOL SC

MMPB Flight Activity (Flightaware)

Listeners: 2 out of 3691 total

AeroMexico Ops: 131.000
Mexico Approach: 121.200
Mexico Approach (East): 120.500
Mexico Center: 128.000
Puebla Tower/Approach: 118.200
Toluca Approach: 129.600

MMSP Twr/App/Center
San Luis Potosi, Mexico

Feed Status: DOWN
Offline since: 2013-01-03 03:26:05 UTC
MMSP 191649Z 15004KT 15SM FEW015 FEW250 21/10 A3027 RMK 8/501

Mexico Center (Sector 6): 126.000
Mexico Center (Sector 7): 123.900
Potosi Tower/App: 118.900

MMTC Torreon, Mexico (Archives)
Torreon, Mexico

Feed Status: UP

Click on your favorite media player to listen:
Listen with WinAmp to MMTC Torreon, Mexico  Listen with iTunes to MMTC Torreon, Mexico  Click here to listen if using Real Player  Click here to listen if using Windows Media Player

Or simply listen in your browser:

Listen right in your browser(in browser, requires Flash)

MMTC 191640Z 07004KT 8SM BKN200 25/10 A3009 RMK 8/002 HZY ISOL AC

MMTC Flight Activity (Flightaware)

Listeners: 8 out of 3691 total

Mazatlan Center: 124.200
Mazatlan Center: 124.400
Mazatlan Center: 128.000
Mexico Center: 123.900
Monterrey Center: 125.600
Monterrey Center: 125.425
Monterrey Center: 127.400
Torreon Approach: 119.500
Torreon Tower: 118.500

MMUN Twr/App/Center (Archives)
Cancun, Mexico

Feed Status: UP

Click on your favorite media player to listen:
Listen with WinAmp to MMUN Twr/App/Center  Listen with iTunes to MMUN Twr/App/Center  Click here to listen if using Real Player  Click here to listen if using Windows Media Player

Or simply listen in your browser:

Listen right in your browser(in browser, requires Flash)

MMMD 191642Z 01009KT 7SM BKN020 29/17 A3003 RMK 8/100 CI

MMMD Flight Activity (Flightaware)

Listeners: 6 out of 3691 total

Cancun Approach: 123.400
Cancun Departure: 119.800
Cancun Tower (North): 118.100
Cancun Tower (South): 118.600
Merida Center: 125.200
Merida Center: 128.200

TBPB Gnd/Twr/App/Center
Bridgetown, Barbados

Feed Status: DOWN
Offline since: 2014-04-03 16:08:03 UTC
TBPB 191600Z 08022KT 9999 SCT018 BKN300 29/23 Q1016 NOSIG

Adams Approach: 129.350
Adams Arrival/Departure: 121.200
Adams Arrival/Departure: 120.700
Adams Arrival/Departure: 128.850
Adams Ground: 121.900
Adams Tower: 118.700
Emergency/Guard: 121.500
Piarco Center: 126.500
Piarco Center: 125.400
Piarco Center: 123.700
Piarco Center: 133.100

NOTE: Part-time feed up during peak hours only (1700-2200Z)
See: FlightTracker2.com for more info

TNCM Tower/Misc (Archives)
Philipsburg, Saint Martin

Feed Status: UP

Click on your favorite media player to listen:
Listen with WinAmp to TNCM Tower/Misc  Listen with iTunes to TNCM Tower/Misc  Click here to listen if using Real Player  Click here to listen if using Windows Media Player

Or simply listen in your browser:

Listen right in your browser(in browser, requires Flash)

TNCM 191617Z 09015G26KT 070V130 9999 VCSH FEW017 SCT039 27/21 Q1018 A3008 NOSIG RMK SHRA NW

TNCM Flight Activity (Flightaware)

Listeners: 5 out of 3691 total

Juliana Approach (only when busy): 128.950
Juliana Tower (TNCM): 118.700
Lloyd Tower (TQPF/Anguilla): 118.500

NOTE: Feed up from 1100-2200Z

Bermuda Tower/Ground (Archives)
Hamilton, Bermuda

Feed Status: UP

Click on your favorite media player to listen:
Listen with WinAmp to Bermuda Tower/Ground  Listen with iTunes to Bermuda Tower/Ground  Click here to listen if using Real Player  Click here to listen if using Windows Media Player

Or simply listen in your browser:

Listen right in your browser(in browser, requires Flash)

TXKF 191655Z 18012KT 9999 FEW015 SCT300 24/19 Q1024 

TXKF Flight Activity (Flightaware)

Listeners: 2 out of 3691 total

Bermuda CTAF: 122.800
Bermuda Ground/Clearance: 124.500
Bermuda Tower: 118.100

ZNY Bermuda Sector (Archives)
Hamilton, Bermuda

Feed Status: UP

Click on your favorite media player to listen:
Listen with WinAmp to ZNY Bermuda Sector  Listen with iTunes to ZNY Bermuda Sector  Click here to listen if using Real Player  Click here to listen if using Windows Media Player

Or simply listen in your browser:

Listen right in your browser(in browser, requires Flash)

TXKF 191655Z 18012KT 9999 FEW015 SCT300 24/19 Q1024 

TXKF Flight Activity (Flightaware)

Listeners: 2 out of 3691 total

New York Approach (Bermuda Sector) : 119.100
New York Center (Bermuda Sector): 128.500

CENAMER Control (Archives)
Guatemala City, Guatemala

Feed Status: UP

Click on your favorite media player to listen:
Listen with WinAmp to CENAMER Control  Listen with iTunes to CENAMER Control  Click here to listen if using Real Player  Click here to listen if using Windows Media Player

Or simply listen in your browser:

Listen right in your browser(in browser, requires Flash)

MGGT 191600Z 36020KT 9999 SCT016 22/13 Q1026 A3030

MGGT Flight Activity (Flightaware)

Listeners: 2 out of 3691 total

CENAMER (Central American Control): 123.900
CENAMER (Central American Control): 124.100

MGGT Gnd/Twr (Archives)
Guatemala City, Guatemala

Feed Status: UP

Click on your favorite media player to listen:
Listen with WinAmp to MGGT Gnd/Twr  Listen with iTunes to MGGT Gnd/Twr  Click here to listen if using Real Player  Click here to listen if using Windows Media Player

Or simply listen in your browser:

Listen right in your browser(in browser, requires Flash)

MGGT 191600Z 36020KT 9999 SCT016 22/13 Q1026 A3030

MGGT Flight Activity (Flightaware)

Listeners: 2 out of 3691 total

Guatemala City Ground: 121.900
Guatemala City Tower: 118.100

MGGT Ground (Archives)
Guatemala City, Guatemala

Feed Status: UP

Click on your favorite media player to listen:
Listen with WinAmp to MGGT Ground  Listen with iTunes to MGGT Ground  Click here to listen if using Real Player  Click here to listen if using Windows Media Player

Or simply listen in your browser:

Listen right in your browser(in browser, requires Flash)

MGGT 191600Z 36020KT 9999 SCT016 22/13 Q1026 A3030

MGGT Flight Activity (Flightaware)

Listeners: 5 out of 3691 total

Guatemala City Ground: 121.900

MGGT Tower (Archives)
Guatemala City, Guatemala

Feed Status: UP

Click on your favorite media player to listen:
Listen with WinAmp to MGGT Tower  Listen with iTunes to MGGT Tower  Click here to listen if using Real Player  Click here to listen if using Windows Media Player

Or simply listen in your browser:

Listen right in your browser(in browser, requires Flash)

MGGT 191600Z 36020KT 9999 SCT016 22/13 Q1026 A3030

MGGT Flight Activity (Flightaware)

Listeners: 3 out of 3691 total

Guatemala City Tower: 118.100

MGGT Twr/App (Archives)
Guatemala City, Guatemala

Feed Status: UP

Click on your favorite media player to listen:
Listen with WinAmp to MGGT Twr/App  Listen with iTunes to MGGT Twr/App  Click here to listen if using Real Player  Click here to listen if using Windows Media Player

Or simply listen in your browser:

Listen right in your browser(in browser, requires Flash)

MGGT 191600Z 36020KT 9999 SCT016 22/13 Q1026 A3030

MGGT Flight Activity (Flightaware)

Listeners: 4 out of 3691 total

Guatemala City Approach: 119.300
Guatemala City Tower: 118.100

MHTG Gnd/Twr/App/Ctr/Ops
Tegucigalpa, Honduras

Feed Status: DOWN
Offline since: 2014-04-16 22:16:03 UTC
MHTG 191700Z 04010KT 9999 SCT030 SCT250 28/14 Q1019 A3009 NOSIG

American Airlines Ops: 130.700
ARINC ACARS: 131.550
Cenamer Center: 123.900
Cenamer Center: 124.300
Cenamer Center: 124.100
CMP Ops: 129.925
Continental Airlines Ops: 129.925
FAH Ground: 122.900
Taca Ops: 131.300
Taca Ops Sal: 130.300
Tecnologias Unidas: 133.000
Tegucigalpa RDO: 126.700
Toncontin Approach: 119.100
Toncontin Ground: 121.900
Toncontin Tower: 118.700

MROC Del/Gnd/Twr/App/Center/Misc
San Jose, Costa Rica

Feed Status: DOWN
Offline since: 2014-04-19 03:30:04 UTC
MROC 191700Z 10010KT 9999 FEW040 28/13 A3001 NOSIG

ADS: 131.000
Aerodespacho Ops: 135.000
Central American Center (CENAMER Control): 124.100
Coco Center (Control over CR Airspace): 119.600
Coco Clearance Delivery: 121.300
Coco Ground: 121.900
Coco Terminal Control: 120.500
Coco Tower: 118.600
Coco UNICOM: 126.800
SYQ Ground: 121.700
SYQ Tower: 118.300

MROC

MROC Gnd/Twr/App/Center
San Jose, Costa Rica

Feed Status: DOWN
Offline since: 2013-07-05 06:48:03 UTC
MROC 191700Z 10010KT 9999 FEW040 28/13 A3001 NOSIG

Centamer Control: 124.100
Coco Center: 119.600
Coco Ground: 121.900
Coco Terminal Control: 120.500
Coco Tower: 118.600

Sponsored by: AviacionCR.net

MSSS Tower
San Salvador, El Salvador

Feed Status: DOWN
Offline since: 2014-04-19 11:18:03 UTC
MSSS 191650Z 34005KT CAVOK 30/21 Q1016 A3001

El Salvador Approach: 119.900
Ilopango Approach: 119.500
Ilopango Ground: 121.900
Ilopango Tower: 118.300

Please make a donation to help us keep growing!